<?xml version="1.0" encoding="UTF-8" ?>
<gpx version="1.1" xmlns:xsi="http://www.w3.org/2001/XMLSchema-instance" 
    xmlns="http://www.topografix.com/GPX/1/1" 
    xsi:schemaLocation="http://www.topografix.com/GPX/1/1 http://www.topografix.com/GPX/1/1/gpx.xsd" 
    creator="Openrunner - https://www.openrunner.com" >	<trk>
						<name>10304817-VTT-Bussang-Circuit 7-Rochelotte</name>
						<trkseg>
					<trkpt lat="47.902400" lon="6.864600">
						<ele>875</ele>
						<time>2019-07-31T08:16:20Z</time>
					</trkpt>
					<trkpt lat="47.902420" lon="6.864880">
						<ele>873</ele>
						<time>2019-07-31T08:16:24Z</time>
					</trkpt>
					<trkpt lat="47.902440" lon="6.865080">
						<ele>871</ele>
						<time>2019-07-31T08:16:28Z</time>
					</trkpt>
					<trkpt lat="47.902520" lon="6.865380">
						<ele>869</ele>
						<time>2019-07-31T08:16:33Z</time>
					</trkpt>
					<trkpt lat="47.902600" lon="6.865640">
						<ele>866</ele>
						<time>2019-07-31T08:16:37Z</time>
					</trkpt>
					<trkpt lat="47.902750" lon="6.865800">
						<ele>868</ele>
						<time>2019-07-31T08:16:41Z</time>
					</trkpt>
					<trkpt lat="47.902890" lon="6.865920">
						<ele>869</ele>
						<time>2019-07-31T08:16:45Z</time>
					</trkpt>
					<trkpt lat="47.903030" lon="6.865960">
						<ele>872</ele>
						<time>2019-07-31T08:16:49Z</time>
					</trkpt>
					<trkpt lat="47.903110" lon="6.866080">
						<ele>872</ele>
						<time>2019-07-31T08:16:51Z</time>
					</trkpt>
					<trkpt lat="47.903150" lon="6.866200">
						<ele>870</ele>
						<time>2019-07-31T08:16:53Z</time>
					</trkpt>
					<trkpt lat="47.903350" lon="6.866240">
						<ele>874</ele>
						<time>2019-07-31T08:16:58Z</time>
					</trkpt>
					<trkpt lat="47.903630" lon="6.866250">
						<ele>877</ele>
						<time>2019-07-31T08:17:05Z</time>
					</trkpt>
					<trkpt lat="47.903860" lon="6.866220">
						<ele>880</ele>
						<time>2019-07-31T08:17:10Z</time>
					</trkpt>
					<trkpt lat="47.904140" lon="6.866180">
						<ele>884</ele>
						<time>2019-07-31T08:17:16Z</time>
					</trkpt>
					<trkpt lat="47.904290" lon="6.866150">
						<ele>887</ele>
						<time>2019-07-31T08:17:20Z</time>
					</trkpt>
					<trkpt lat="47.904590" lon="6.866110">
						<ele>890</ele>
						<time>2019-07-31T08:17:27Z</time>
					</trkpt>
					<trkpt lat="47.904790" lon="6.866110">
						<ele>892</ele>
						<time>2019-07-31T08:17:32Z</time>
					</trkpt>
					<trkpt lat="47.905070" lon="6.866200">
						<ele>892</ele>
						<time>2019-07-31T08:17:38Z</time>
					</trkpt>
					<trkpt lat="47.905260" lon="6.866220">
						<ele>894</ele>
						<time>2019-07-31T08:17:43Z</time>
					</trkpt>
					<trkpt lat="47.905570" lon="6.866260">
						<ele>896</ele>
						<time>2019-07-31T08:17:50Z</time>
					</trkpt>
					<trkpt lat="47.905860" lon="6.866270">
						<ele>900</ele>
						<time>2019-07-31T08:17:57Z</time>
					</trkpt>
					<trkpt lat="47.905990" lon="6.866300">
						<ele>902</ele>
						<time>2019-07-31T08:18:00Z</time>
					</trkpt>
					<trkpt lat="47.906120" lon="6.866340">
						<ele>903</ele>
						<time>2019-07-31T08:18:03Z</time>
					</trkpt>
					<trkpt lat="47.906160" lon="6.866460">
						<ele>902</ele>
						<time>2019-07-31T08:18:05Z</time>
					</trkpt>
					<trkpt lat="47.906160" lon="6.866630">
						<ele>900</ele>
						<time>2019-07-31T08:18:08Z</time>
					</trkpt>
					<trkpt lat="47.906150" lon="6.866820">
						<ele>898</ele>
						<time>2019-07-31T08:18:11Z</time>
					</trkpt>
					<trkpt lat="47.906130" lon="6.867040">
						<ele>897</ele>
						<time>2019-07-31T08:18:14Z</time>
					</trkpt>
					<trkpt lat="47.906120" lon="6.867260">
						<ele>896</ele>
						<time>2019-07-31T08:18:18Z</time>
					</trkpt>
					<trkpt lat="47.906190" lon="6.867480">
						<ele>898</ele>
						<time>2019-07-31T08:18:22Z</time>
					</trkpt>
					<trkpt lat="47.906330" lon="6.867780">
						<ele>897</ele>
						<time>2019-07-31T08:18:27Z</time>
					</trkpt>
					<trkpt lat="47.906450" lon="6.868010">
						<ele>897</ele>
						<time>2019-07-31T08:18:32Z</time>
					</trkpt>
					<trkpt lat="47.906590" lon="6.868280">
						<ele>896</ele>
						<time>2019-07-31T08:18:37Z</time>
					</trkpt>
					<trkpt lat="47.906740" lon="6.868520">
						<ele>895</ele>
						<time>2019-07-31T08:18:42Z</time>
					</trkpt>
					<trkpt lat="47.906910" lon="6.868720">
						<ele>894</ele>
						<time>2019-07-31T08:18:47Z</time>
					</trkpt>
					<trkpt lat="47.907070" lon="6.868820">
						<ele>895</ele>
						<time>2019-07-31T08:18:51Z</time>
					</trkpt>
					<trkpt lat="47.907550" lon="6.868900">
						<ele>902</ele>
						<time>2019-07-31T08:19:03Z</time>
					</trkpt>
					<trkpt lat="47.907840" lon="6.869020">
						<ele>906</ele>
						<time>2019-07-31T08:19:10Z</time>
					</trkpt>
					<trkpt lat="47.908030" lon="6.869120">
						<ele>909</ele>
						<time>2019-07-31T08:19:14Z</time>
					</trkpt>
					<trkpt lat="47.908190" lon="6.869280">
						<ele>909</ele>
						<time>2019-07-31T08:19:19Z</time>
					</trkpt>
					<trkpt lat="47.908360" lon="6.869420">
						<ele>910</ele>
						<time>2019-07-31T08:19:23Z</time>
					</trkpt>
					<trkpt lat="47.908530" lon="6.869630">
						<ele>910</ele>
						<time>2019-07-31T08:19:29Z</time>
					</trkpt>
					<trkpt lat="47.908700" lon="6.869830">
						<ele>910</ele>
						<time>2019-07-31T08:19:34Z</time>
					</trkpt>
					<trkpt lat="47.908940" lon="6.870130">
						<ele>910</ele>
						<time>2019-07-31T08:19:41Z</time>
					</trkpt>
					<trkpt lat="47.909140" lon="6.870360">
						<ele>909</ele>
						<time>2019-07-31T08:19:47Z</time>
					</trkpt>
					<trkpt lat="47.909280" lon="6.870510">
						<ele>906</ele>
						<time>2019-07-31T08:19:51Z</time>
					</trkpt>
					<trkpt lat="47.909470" lon="6.870570">
						<ele>907</ele>
						<time>2019-07-31T08:19:55Z</time>
					</trkpt>
					<trkpt lat="47.909620" lon="6.870590">
						<ele>909</ele>
						<time>2019-07-31T08:19:59Z</time>
					</trkpt>
					<trkpt lat="47.909770" lon="6.870630">
						<ele>909</ele>
						<time>2019-07-31T08:20:03Z</time>
					</trkpt>
					<trkpt lat="47.910090" lon="6.870670">
						<ele>913</ele>
						<time>2019-07-31T08:20:10Z</time>
					</trkpt>
					<trkpt lat="47.910230" lon="6.870780">
						<ele>912</ele>
						<time>2019-07-31T08:20:14Z</time>
					</trkpt>
					<trkpt lat="47.910460" lon="6.870940">
						<ele>913</ele>
						<time>2019-07-31T08:20:20Z</time>
					</trkpt>
					<trkpt lat="47.910600" lon="6.871010">
						<ele>915</ele>
						<time>2019-07-31T08:20:23Z</time>
					</trkpt>
					<trkpt lat="47.910710" lon="6.871080">
						<ele>917</ele>
						<time>2019-07-31T08:20:26Z</time>
					</trkpt>
					<trkpt lat="47.910780" lon="6.871230">
						<ele>917</ele>
						<time>2019-07-31T08:20:29Z</time>
					</trkpt>
					<trkpt lat="47.910810" lon="6.871360">
						<ele>917</ele>
						<time>2019-07-31T08:20:31Z</time>
					</trkpt>
					<trkpt lat="47.910830" lon="6.871530">
						<ele>915</ele>
						<time>2019-07-31T08:20:34Z</time>
					</trkpt>
					<trkpt lat="47.910820" lon="6.871720">
						<ele>913</ele>
						<time>2019-07-31T08:20:37Z</time>
					</trkpt>
					<trkpt lat="47.910840" lon="6.871880">
						<ele>912</ele>
						<time>2019-07-31T08:20:39Z</time>
					</trkpt>
					<trkpt lat="47.910880" lon="6.872270">
						<ele>911</ele>
						<time>2019-07-31T08:20:45Z</time>
					</trkpt>
					<trkpt lat="47.910960" lon="6.872550">
						<ele>911</ele>
						<time>2019-07-31T08:20:50Z</time>
					</trkpt>
					<trkpt lat="47.911050" lon="6.872820">
						<ele>910</ele>
						<time>2019-07-31T08:20:55Z</time>
					</trkpt>
					<trkpt lat="47.911140" lon="6.873030">
						<ele>910</ele>
						<time>2019-07-31T08:20:59Z</time>
					</trkpt>
					<trkpt lat="47.911270" lon="6.873300">
						<ele>911</ele>
						<time>2019-07-31T08:21:04Z</time>
					</trkpt>
					<trkpt lat="47.911480" lon="6.873630">
						<ele>914</ele>
						<time>2019-07-31T08:21:11Z</time>
					</trkpt>
					<trkpt lat="47.911670" lon="6.873850">
						<ele>918</ele>
						<time>2019-07-31T08:21:17Z</time>
					</trkpt>
					<trkpt lat="47.911810" lon="6.873970">
						<ele>920</ele>
						<time>2019-07-31T08:21:20Z</time>
					</trkpt>
					<trkpt lat="47.912110" lon="6.874220">
						<ele>924</ele>
						<time>2019-07-31T08:21:28Z</time>
					</trkpt>
					<trkpt lat="47.912330" lon="6.874440">
						<ele>926</ele>
						<time>2019-07-31T08:21:35Z</time>
					</trkpt>
					<trkpt lat="47.912500" lon="6.874770">
						<ele>925</ele>
						<time>2019-07-31T08:21:41Z</time>
					</trkpt>
					<trkpt lat="47.912670" lon="6.875060">
						<ele>929</ele>
						<time>2019-07-31T08:21:47Z</time>
					</trkpt>
					<trkpt lat="47.912770" lon="6.875350">
						<ele>929</ele>
						<time>2019-07-31T08:21:52Z</time>
					</trkpt>
					<trkpt lat="47.912900" lon="6.875810">
						<ele>928</ele>
						<time>2019-07-31T08:22:00Z</time>
					</trkpt>
					<trkpt lat="47.913010" lon="6.876100">
						<ele>928</ele>
						<time>2019-07-31T08:22:05Z</time>
					</trkpt>
					<trkpt lat="47.913120" lon="6.876370">
						<ele>929</ele>
						<time>2019-07-31T08:22:10Z</time>
					</trkpt>
					<trkpt lat="47.913310" lon="6.876600">
						<ele>933</ele>
						<time>2019-07-31T08:22:16Z</time>
					</trkpt>
					<trkpt lat="47.913540" lon="6.877100">
						<ele>936</ele>
						<time>2019-07-31T08:22:25Z</time>
					</trkpt>
					<trkpt lat="47.913700" lon="6.877550">
						<ele>937</ele>
						<time>2019-07-31T08:22:33Z</time>
					</trkpt>
					<trkpt lat="47.913770" lon="6.877820">
						<ele>941</ele>
						<time>2019-07-31T08:22:38Z</time>
					</trkpt>
					<trkpt lat="47.913820" lon="6.877720">
						<ele>942</ele>
						<time>2019-07-31T08:22:40Z</time>
					</trkpt>
					<trkpt lat="47.913840" lon="6.877430">
						<ele>944</ele>
						<time>2019-07-31T08:22:44Z</time>
					</trkpt>
					<trkpt lat="47.913710" lon="6.876960">
						<ele>947</ele>
						<time>2019-07-31T08:22:52Z</time>
					</trkpt>
					<trkpt lat="47.913370" lon="6.876140">
						<ele>946</ele>
						<time>2019-07-31T08:23:08Z</time>
					</trkpt>
					<trkpt lat="47.913320" lon="6.875950">
						<ele>947</ele>
						<time>2019-07-31T08:23:11Z</time>
					</trkpt>
					<trkpt lat="47.913290" lon="6.875730">
						<ele>949</ele>
						<time>2019-07-31T08:23:14Z</time>
					</trkpt>
					<trkpt lat="47.913280" lon="6.875480">
						<ele>953</ele>
						<time>2019-07-31T08:23:18Z</time>
					</trkpt>
					<trkpt lat="47.913240" lon="6.875380">
						<ele>953</ele>
						<time>2019-07-31T08:23:20Z</time>
					</trkpt>
					<trkpt lat="47.913200" lon="6.875140">
						<ele>955</ele>
						<time>2019-07-31T08:23:24Z</time>
					</trkpt>
					<trkpt lat="47.913070" lon="6.874920">
						<ele>952</ele>
						<time>2019-07-31T08:23:28Z</time>
					</trkpt>
					<trkpt lat="47.912980" lon="6.874760">
						<ele>950</ele>
						<time>2019-07-31T08:23:32Z</time>
					</trkpt>
					<trkpt lat="47.912920" lon="6.874490">
						<ele>951</ele>
						<time>2019-07-31T08:23:36Z</time>
					</trkpt>
					<trkpt lat="47.912750" lon="6.874200">
						<ele>948</ele>
						<time>2019-07-31T08:23:42Z</time>
					</trkpt>
					<trkpt lat="47.912640" lon="6.874010">
						<ele>947</ele>
						<time>2019-07-31T08:23:46Z</time>
					</trkpt>
					<trkpt lat="47.912540" lon="6.873860">
						<ele>945</ele>
						<time>2019-07-31T08:23:49Z</time>
					</trkpt>
					<trkpt lat="47.912400" lon="6.873710">
						<ele>943</ele>
						<time>2019-07-31T08:23:53Z</time>
					</trkpt>
					<trkpt lat="47.912350" lon="6.873570">
						<ele>945</ele>
						<time>2019-07-31T08:23:56Z</time>
					</trkpt>
					<trkpt lat="47.912300" lon="6.873520">
						<ele>944</ele>
						<time>2019-07-31T08:23:57Z</time>
					</trkpt>
					<trkpt lat="47.912100" lon="6.873350">
						<ele>942</ele>
						<time>2019-07-31T08:24:03Z</time>
					</trkpt>
					<trkpt lat="47.912060" lon="6.873290">
						<ele>941</ele>
						<time>2019-07-31T08:24:04Z</time>
					</trkpt>
					<trkpt lat="47.911960" lon="6.873130">
						<ele>941</ele>
						<time>2019-07-31T08:24:07Z</time>
					</trkpt>
					<trkpt lat="47.911870" lon="6.872940">
						<ele>941</ele>
						<time>2019-07-31T08:24:11Z</time>
					</trkpt>
					<trkpt lat="47.911840" lon="6.872790">
						<ele>942</ele>
						<time>2019-07-31T08:24:14Z</time>
					</trkpt>
					<trkpt lat="47.911820" lon="6.872660">
						<ele>944</ele>
						<time>2019-07-31T08:24:16Z</time>
					</trkpt>
					<trkpt lat="47.911760" lon="6.872470">
						<ele>945</ele>
						<time>2019-07-31T08:24:19Z</time>
					</trkpt>
					<trkpt lat="47.911740" lon="6.872080">
						<ele>946</ele>
						<time>2019-07-31T08:24:25Z</time>
					</trkpt>
					<trkpt lat="47.911820" lon="6.871740">
						<ele>949</ele>
						<time>2019-07-31T08:24:31Z</time>
					</trkpt>
					<trkpt lat="47.911840" lon="6.871440">
						<ele>951</ele>
						<time>2019-07-31T08:24:35Z</time>
					</trkpt>
					<trkpt lat="47.911840" lon="6.871260">
						<ele>951</ele>
						<time>2019-07-31T08:24:38Z</time>
					</trkpt>
					<trkpt lat="47.911850" lon="6.871050">
						<ele>952</ele>
						<time>2019-07-31T08:24:42Z</time>
					</trkpt>
					<trkpt lat="47.911840" lon="6.870880">
						<ele>952</ele>
						<time>2019-07-31T08:24:44Z</time>
					</trkpt>
					<trkpt lat="47.911780" lon="6.870660">
						<ele>954</ele>
						<time>2019-07-31T08:24:48Z</time>
					</trkpt>
					<trkpt lat="47.911750" lon="6.870510">
						<ele>956</ele>
						<time>2019-07-31T08:24:50Z</time>
					</trkpt>
					<trkpt lat="47.911690" lon="6.870360">
						<ele>957</ele>
						<time>2019-07-31T08:24:53Z</time>
					</trkpt>
					<trkpt lat="47.911560" lon="6.870200">
						<ele>958</ele>
						<time>2019-07-31T08:24:57Z</time>
					</trkpt>
					<trkpt lat="47.911440" lon="6.870100">
						<ele>957</ele>
						<time>2019-07-31T08:25:00Z</time>
					</trkpt>
					<trkpt lat="47.911220" lon="6.869910">
						<ele>958</ele>
						<time>2019-07-31T08:25:06Z</time>
					</trkpt>
					<trkpt lat="47.910990" lon="6.869730">
						<ele>959</ele>
						<time>2019-07-31T08:25:12Z</time>
					</trkpt>
					<trkpt lat="47.910750" lon="6.869580">
						<ele>959</ele>
						<time>2019-07-31T08:25:18Z</time>
					</trkpt>
					<trkpt lat="47.910680" lon="6.869470">
						<ele>961</ele>
						<time>2019-07-31T08:25:21Z</time>
					</trkpt>
					<trkpt lat="47.910540" lon="6.869360">
						<ele>962</ele>
						<time>2019-07-31T08:25:24Z</time>
					</trkpt>
					<trkpt lat="47.910390" lon="6.869300">
						<ele>962</ele>
						<time>2019-07-31T08:25:28Z</time>
					</trkpt>
					<trkpt lat="47.910080" lon="6.869170">
						<ele>961</ele>
						<time>2019-07-31T08:25:36Z</time>
					</trkpt>
					<trkpt lat="47.909840" lon="6.868870">
						<ele>962</ele>
						<time>2019-07-31T08:25:43Z</time>
					</trkpt>
					<trkpt lat="47.909640" lon="6.868520">
						<ele>964</ele>
						<time>2019-07-31T08:25:50Z</time>
					</trkpt>
					<trkpt lat="47.909490" lon="6.868200">
						<ele>965</ele>
						<time>2019-07-31T08:25:56Z</time>
					</trkpt>
					<trkpt lat="47.909380" lon="6.867850">
						<ele>965</ele>
						<time>2019-07-31T08:26:02Z</time>
					</trkpt>
					<trkpt lat="47.909280" lon="6.867470">
						<ele>967</ele>
						<time>2019-07-31T08:26:09Z</time>
					</trkpt>
					<trkpt lat="47.909260" lon="6.867250">
						<ele>967</ele>
						<time>2019-07-31T08:26:12Z</time>
					</trkpt>
					<trkpt lat="47.909270" lon="6.866940">
						<ele>968</ele>
						<time>2019-07-31T08:26:17Z</time>
					</trkpt>
					<trkpt lat="47.909290" lon="6.866650">
						<ele>969</ele>
						<time>2019-07-31T08:26:22Z</time>
					</trkpt>
					<trkpt lat="47.909330" lon="6.866370">
						<ele>971</ele>
						<time>2019-07-31T08:26:26Z</time>
					</trkpt>
					<trkpt lat="47.909380" lon="6.866140">
						<ele>974</ele>
						<time>2019-07-31T08:26:30Z</time>
					</trkpt>
					<trkpt lat="47.909410" lon="6.865930">
						<ele>976</ele>
						<time>2019-07-31T08:26:33Z</time>
					</trkpt>
					<trkpt lat="47.909410" lon="6.865720">
						<ele>977</ele>
						<time>2019-07-31T08:26:36Z</time>
					</trkpt>
					<trkpt lat="47.909380" lon="6.865540">
						<ele>977</ele>
						<time>2019-07-31T08:26:39Z</time>
					</trkpt>
					<trkpt lat="47.909210" lon="6.865160">
						<ele>977</ele>
						<time>2019-07-31T08:26:46Z</time>
					</trkpt>
					<trkpt lat="47.909000" lon="6.864720">
						<ele>975</ele>
						<time>2019-07-31T08:26:55Z</time>
					</trkpt>
					<trkpt lat="47.908910" lon="6.864510">
						<ele>974</ele>
						<time>2019-07-31T08:26:59Z</time>
					</trkpt>
					<trkpt lat="47.908890" lon="6.864230">
						<ele>975</ele>
						<time>2019-07-31T08:27:03Z</time>
					</trkpt>
					<trkpt lat="47.908860" lon="6.864040">
						<ele>975</ele>
						<time>2019-07-31T08:27:06Z</time>
					</trkpt>
					<trkpt lat="47.908790" lon="6.863870">
						<ele>975</ele>
						<time>2019-07-31T08:27:09Z</time>
					</trkpt>
					<trkpt lat="47.908670" lon="6.863660">
						<ele>974</ele>
						<time>2019-07-31T08:27:14Z</time>
					</trkpt>
					<trkpt lat="47.908590" lon="6.863460">
						<ele>974</ele>
						<time>2019-07-31T08:27:17Z</time>
					</trkpt>
					<trkpt lat="47.908500" lon="6.863260">
						<ele>974</ele>
						<time>2019-07-31T08:27:21Z</time>
					</trkpt>
					<trkpt lat="47.908300" lon="6.863040">
						<ele>975</ele>
						<time>2019-07-31T08:27:27Z</time>
					</trkpt>
					<trkpt lat="47.908050" lon="6.862870">
						<ele>975</ele>
						<time>2019-07-31T08:27:33Z</time>
					</trkpt>
					<trkpt lat="47.907760" lon="6.862740">
						<ele>974</ele>
						<time>2019-07-31T08:27:40Z</time>
					</trkpt>
					<trkpt lat="47.907460" lon="6.862590">
						<ele>974</ele>
						<time>2019-07-31T08:27:48Z</time>
					</trkpt>
					<trkpt lat="47.907220" lon="6.862450">
						<ele>975</ele>
						<time>2019-07-31T08:27:54Z</time>
					</trkpt>
					<trkpt lat="47.907360" lon="6.862430">
						<ele>976</ele>
						<time>2019-07-31T08:27:57Z</time>
					</trkpt>
					<trkpt lat="47.907520" lon="6.862470">
						<ele>976</ele>
						<time>2019-07-31T08:28:01Z</time>
					</trkpt>
					<trkpt lat="47.907620" lon="6.862470">
						<ele>977</ele>
						<time>2019-07-31T08:28:03Z</time>
					</trkpt>
					<trkpt lat="47.907860" lon="6.862520">
						<ele>979</ele>
						<time>2019-07-31T08:28:09Z</time>
					</trkpt>
					<trkpt lat="47.908050" lon="6.862550">
						<ele>980</ele>
						<time>2019-07-31T08:28:13Z</time>
					</trkpt>
					<trkpt lat="47.908320" lon="6.862510">
						<ele>984</ele>
						<time>2019-07-31T08:28:20Z</time>
					</trkpt>
					<trkpt lat="47.908500" lon="6.862550">
						<ele>984</ele>
						<time>2019-07-31T08:28:24Z</time>
					</trkpt>
					<trkpt lat="47.908710" lon="6.862620">
						<ele>985</ele>
						<time>2019-07-31T08:28:29Z</time>
					</trkpt>
					<trkpt lat="47.908870" lon="6.862660">
						<ele>986</ele>
						<time>2019-07-31T08:28:33Z</time>
					</trkpt>
					<trkpt lat="47.909650" lon="6.863030">
						<ele>988</ele>
						<time>2019-07-31T08:28:52Z</time>
					</trkpt>
					<trkpt lat="47.910110" lon="6.862980">
						<ele>991</ele>
						<time>2019-07-31T08:29:03Z</time>
					</trkpt>
					<trkpt lat="47.910240" lon="6.862920">
						<ele>991</ele>
						<time>2019-07-31T08:29:06Z</time>
					</trkpt>
					<trkpt lat="47.910230" lon="6.863200">
						<ele>990</ele>
						<time>2019-07-31T08:29:10Z</time>
					</trkpt>
					<trkpt lat="47.910300" lon="6.863400">
						<ele>990</ele>
						<time>2019-07-31T08:29:14Z</time>
					</trkpt>
					<trkpt lat="47.910300" lon="6.863650">
						<ele>991</ele>
						<time>2019-07-31T08:29:18Z</time>
					</trkpt>
					<trkpt lat="47.910350" lon="6.864050">
						<ele>993</ele>
						<time>2019-07-31T08:29:24Z</time>
					</trkpt>
					<trkpt lat="47.910550" lon="6.864450">
						<ele>996</ele>
						<time>2019-07-31T08:29:32Z</time>
					</trkpt>
					<trkpt lat="47.910600" lon="6.864610">
						<ele>997</ele>
						<time>2019-07-31T08:29:35Z</time>
					</trkpt>
					<trkpt lat="47.910760" lon="6.865010">
						<ele>1000</ele>
						<time>2019-07-31T08:29:42Z</time>
					</trkpt>
					<trkpt lat="47.910920" lon="6.865440">
						<ele>1002</ele>
						<time>2019-07-31T08:29:50Z</time>
					</trkpt>
					<trkpt lat="47.911100" lon="6.865820">
						<ele>1004</ele>
						<time>2019-07-31T08:29:57Z</time>
					</trkpt>
					<trkpt lat="47.911300" lon="6.866240">
						<ele>1006</ele>
						<time>2019-07-31T08:30:05Z</time>
					</trkpt>
					<trkpt lat="47.911520" lon="6.866470">
						<ele>1008</ele>
						<time>2019-07-31T08:30:11Z</time>
					</trkpt>
					<trkpt lat="47.911770" lon="6.866790">
						<ele>1009</ele>
						<time>2019-07-31T08:30:19Z</time>
					</trkpt>
					<trkpt lat="47.912000" lon="6.867190">
						<ele>1008</ele>
						<time>2019-07-31T08:30:27Z</time>
					</trkpt>
					<trkpt lat="47.912140" lon="6.867420">
						<ele>1008</ele>
						<time>2019-07-31T08:30:32Z</time>
					</trkpt>
					<trkpt lat="47.912290" lon="6.867690">
						<ele>1008</ele>
						<time>2019-07-31T08:30:38Z</time>
					</trkpt>
					<trkpt lat="47.912370" lon="6.867860">
						<ele>1009</ele>
						<time>2019-07-31T08:30:41Z</time>
					</trkpt>
					<trkpt lat="47.912480" lon="6.868120">
						<ele>1010</ele>
						<time>2019-07-31T08:30:46Z</time>
					</trkpt>
					<trkpt lat="47.912560" lon="6.868290">
						<ele>1011</ele>
						<time>2019-07-31T08:30:49Z</time>
					</trkpt>
					<trkpt lat="47.912680" lon="6.868460">
						<ele>1011</ele>
						<time>2019-07-31T08:30:53Z</time>
					</trkpt>
					<trkpt lat="47.912820" lon="6.868560">
						<ele>1012</ele>
						<time>2019-07-31T08:30:56Z</time>
					</trkpt>
					<trkpt lat="47.912970" lon="6.868640">
						<ele>1013</ele>
						<time>2019-07-31T08:31:00Z</time>
					</trkpt>
					<trkpt lat="47.913160" lon="6.868690">
						<ele>1016</ele>
						<time>2019-07-31T08:31:05Z</time>
					</trkpt>
					<trkpt lat="47.913280" lon="6.868710">
						<ele>1018</ele>
						<time>2019-07-31T08:31:07Z</time>
					</trkpt>
					<trkpt lat="47.913730" lon="6.868640">
						<ele>1022</ele>
						<time>2019-07-31T08:31:18Z</time>
					</trkpt>
					<trkpt lat="47.913920" lon="6.868660">
						<ele>1024</ele>
						<time>2019-07-31T08:31:22Z</time>
					</trkpt>
					<trkpt lat="47.914030" lon="6.868710">
						<ele>1025</ele>
						<time>2019-07-31T08:31:25Z</time>
					</trkpt>
					<trkpt lat="47.914110" lon="6.868720">
						<ele>1026</ele>
						<time>2019-07-31T08:31:27Z</time>
					</trkpt>
					<trkpt lat="47.914260" lon="6.868720">
						<ele>1027</ele>
						<time>2019-07-31T08:31:30Z</time>
					</trkpt>
					<trkpt lat="47.914480" lon="6.868640">
						<ele>1027</ele>
						<time>2019-07-31T08:31:36Z</time>
					</trkpt>
					<trkpt lat="47.914620" lon="6.868530">
						<ele>1027</ele>
						<time>2019-07-31T08:31:39Z</time>
					</trkpt>
					<trkpt lat="47.914830" lon="6.868410">
						<ele>1027</ele>
						<time>2019-07-31T08:31:45Z</time>
					</trkpt>
					<trkpt lat="47.914720" lon="6.868260">
						<ele>1026</ele>
						<time>2019-07-31T08:31:48Z</time>
					</trkpt>
					<trkpt lat="47.914620" lon="6.868170">
						<ele>1024</ele>
						<time>2019-07-31T08:31:51Z</time>
					</trkpt>
					<trkpt lat="47.914460" lon="6.867980">
						<ele>1022</ele>
						<time>2019-07-31T08:31:56Z</time>
					</trkpt>
					<trkpt lat="47.914380" lon="6.867730">
						<ele>1019</ele>
						<time>2019-07-31T08:32:00Z</time>
					</trkpt>
					<trkpt lat="47.914430" lon="6.867510">
						<ele>1018</ele>
						<time>2019-07-31T08:32:04Z</time>
					</trkpt>
					<trkpt lat="47.914610" lon="6.867070">
						<ele>1014</ele>
						<time>2019-07-31T08:32:12Z</time>
					</trkpt>
					<trkpt lat="47.914610" lon="6.866790">
						<ele>1011</ele>
						<time>2019-07-31T08:32:16Z</time>
					</trkpt>
					<trkpt lat="47.914720" lon="6.866560">
						<ele>1008</ele>
						<time>2019-07-31T08:32:21Z</time>
					</trkpt>
					<trkpt lat="47.915620" lon="6.865490">
						<ele>1004</ele>
						<time>2019-07-31T08:32:47Z</time>
					</trkpt>
					<trkpt lat="47.915790" lon="6.865360">
						<ele>1004</ele>
						<time>2019-07-31T08:32:52Z</time>
					</trkpt>
					<trkpt lat="47.915820" lon="6.865270">
						<ele>1003</ele>
						<time>2019-07-31T08:32:53Z</time>
					</trkpt>
					<trkpt lat="47.915830" lon="6.865180">
						<ele>1002</ele>
						<time>2019-07-31T08:32:55Z</time>
					</trkpt>
					<trkpt lat="47.915750" lon="6.865140">
						<ele>1001</ele>
						<time>2019-07-31T08:32:57Z</time>
					</trkpt>
					<trkpt lat="47.915560" lon="6.865130">
						<ele>999</ele>
						<time>2019-07-31T08:33:01Z</time>
					</trkpt>
					<trkpt lat="47.915340" lon="6.865120">
						<ele>996</ele>
						<time>2019-07-31T08:33:06Z</time>
					</trkpt>
					<trkpt lat="47.915160" lon="6.865110">
						<ele>994</ele>
						<time>2019-07-31T08:33:11Z</time>
					</trkpt>
					<trkpt lat="47.914950" lon="6.865080">
						<ele>992</ele>
						<time>2019-07-31T08:33:16Z</time>
					</trkpt>
					<trkpt lat="47.914700" lon="6.865100">
						<ele>990</ele>
						<time>2019-07-31T08:33:21Z</time>
					</trkpt>
					<trkpt lat="47.914480" lon="6.865090">
						<ele>988</ele>
						<time>2019-07-31T08:33:27Z</time>
					</trkpt>
					<trkpt lat="47.914280" lon="6.865070">
						<ele>987</ele>
						<time>2019-07-31T08:33:31Z</time>
					</trkpt>
					<trkpt lat="47.914040" lon="6.864990">
						<ele>985</ele>
						<time>2019-07-31T08:33:37Z</time>
					</trkpt>
					<trkpt lat="47.913750" lon="6.864940">
						<ele>985</ele>
						<time>2019-07-31T08:33:44Z</time>
					</trkpt>
					<trkpt lat="47.913520" lon="6.864890">
						<ele>985</ele>
						<time>2019-07-31T08:33:49Z</time>
					</trkpt>
					<trkpt lat="47.913340" lon="6.864800">
						<ele>985</ele>
						<time>2019-07-31T08:33:54Z</time>
					</trkpt>
					<trkpt lat="47.913120" lon="6.864590">
						<ele>986</ele>
						<time>2019-07-31T08:34:00Z</time>
					</trkpt>
					<trkpt lat="47.913070" lon="6.864510">
						<ele>985</ele>
						<time>2019-07-31T08:34:01Z</time>
					</trkpt>
					<trkpt lat="47.912960" lon="6.863640">
						<ele>979</ele>
						<time>2019-07-31T08:34:15Z</time>
					</trkpt>
					<trkpt lat="47.912820" lon="6.863320">
						<ele>978</ele>
						<time>2019-07-31T08:34:21Z</time>
					</trkpt>
					<trkpt lat="47.912730" lon="6.863200">
						<ele>978</ele>
						<time>2019-07-31T08:34:24Z</time>
					</trkpt>
					<trkpt lat="47.912650" lon="6.863090">
						<ele>978</ele>
						<time>2019-07-31T08:34:27Z</time>
					</trkpt>
					<trkpt lat="47.912520" lon="6.862890">
						<ele>977</ele>
						<time>2019-07-31T08:34:31Z</time>
					</trkpt>
					<trkpt lat="47.912380" lon="6.862670">
						<ele>976</ele>
						<time>2019-07-31T08:34:36Z</time>
					</trkpt>
					<trkpt lat="47.912310" lon="6.862520">
						<ele>975</ele>
						<time>2019-07-31T08:34:39Z</time>
					</trkpt>
					<trkpt lat="47.912180" lon="6.862360">
						<ele>975</ele>
						<time>2019-07-31T08:34:43Z</time>
					</trkpt>
					<trkpt lat="47.912060" lon="6.862280">
						<ele>975</ele>
						<time>2019-07-31T08:34:46Z</time>
					</trkpt>
					<trkpt lat="47.911940" lon="6.862170">
						<ele>976</ele>
						<time>2019-07-31T08:34:49Z</time>
					</trkpt>
					<trkpt lat="47.911860" lon="6.862020">
						<ele>975</ele>
						<time>2019-07-31T08:34:52Z</time>
					</trkpt>
					<trkpt lat="47.911820" lon="6.861880">
						<ele>975</ele>
						<time>2019-07-31T08:34:54Z</time>
					</trkpt>
					<trkpt lat="47.911750" lon="6.861690">
						<ele>974</ele>
						<time>2019-07-31T08:34:58Z</time>
					</trkpt>
					<trkpt lat="47.911700" lon="6.861530">
						<ele>975</ele>
						<time>2019-07-31T08:35:00Z</time>
					</trkpt>
					<trkpt lat="47.911620" lon="6.861300">
						<ele>976</ele>
						<time>2019-07-31T08:35:04Z</time>
					</trkpt>
					<trkpt lat="47.911560" lon="6.861050">
						<ele>977</ele>
						<time>2019-07-31T08:35:09Z</time>
					</trkpt>
					<trkpt lat="47.911590" lon="6.860850">
						<ele>977</ele>
						<time>2019-07-31T08:35:12Z</time>
					</trkpt>
					<trkpt lat="47.911640" lon="6.860630">
						<ele>975</ele>
						<time>2019-07-31T08:35:15Z</time>
					</trkpt>
					<trkpt lat="47.911670" lon="6.860400">
						<ele>973</ele>
						<time>2019-07-31T08:35:19Z</time>
					</trkpt>
					<trkpt lat="47.911660" lon="6.860210">
						<ele>973</ele>
						<time>2019-07-31T08:35:22Z</time>
					</trkpt>
					<trkpt lat="47.911560" lon="6.859920">
						<ele>973</ele>
						<time>2019-07-31T08:35:27Z</time>
					</trkpt>
					<trkpt lat="47.911470" lon="6.859590">
						<ele>973</ele>
						<time>2019-07-31T08:35:33Z</time>
					</trkpt>
					<trkpt lat="47.911380" lon="6.859320">
						<ele>972</ele>
						<time>2019-07-31T08:35:38Z</time>
					</trkpt>
					<trkpt lat="47.911310" lon="6.859110">
						<ele>972</ele>
						<time>2019-07-31T08:35:41Z</time>
					</trkpt>
					<trkpt lat="47.911200" lon="6.858880">
						<ele>971</ele>
						<time>2019-07-31T08:35:46Z</time>
					</trkpt>
					<trkpt lat="47.911060" lon="6.858640">
						<ele>971</ele>
						<time>2019-07-31T08:35:51Z</time>
					</trkpt>
					<trkpt lat="47.910920" lon="6.858400">
						<ele>970</ele>
						<time>2019-07-31T08:35:56Z</time>
					</trkpt>
					<trkpt lat="47.910800" lon="6.858210">
						<ele>969</ele>
						<time>2019-07-31T08:36:00Z</time>
					</trkpt>
					<trkpt lat="47.910630" lon="6.857970">
						<ele>970</ele>
						<time>2019-07-31T08:36:05Z</time>
					</trkpt>
					<trkpt lat="47.910460" lon="6.857730">
						<ele>969</ele>
						<time>2019-07-31T08:36:11Z</time>
					</trkpt>
					<trkpt lat="47.910340" lon="6.857520">
						<ele>968</ele>
						<time>2019-07-31T08:36:15Z</time>
					</trkpt>
					<trkpt lat="47.910210" lon="6.857390">
						<ele>969</ele>
						<time>2019-07-31T08:36:19Z</time>
					</trkpt>
					<trkpt lat="47.910030" lon="6.857220">
						<ele>969</ele>
						<time>2019-07-31T08:36:24Z</time>
					</trkpt>
					<trkpt lat="47.909900" lon="6.857060">
						<ele>969</ele>
						<time>2019-07-31T08:36:28Z</time>
					</trkpt>
					<trkpt lat="47.909800" lon="6.856780">
						<ele>966</ele>
						<time>2019-07-31T08:36:32Z</time>
					</trkpt>
					<trkpt lat="47.909730" lon="6.856600">
						<ele>965</ele>
						<time>2019-07-31T08:36:36Z</time>
					</trkpt>
					<trkpt lat="47.909640" lon="6.856440">
						<ele>964</ele>
						<time>2019-07-31T08:36:39Z</time>
					</trkpt>
					<trkpt lat="47.909530" lon="6.856320">
						<ele>963</ele>
						<time>2019-07-31T08:36:42Z</time>
					</trkpt>
					<trkpt lat="47.909400" lon="6.856210">
						<ele>964</ele>
						<time>2019-07-31T08:36:46Z</time>
					</trkpt>
					<trkpt lat="47.909250" lon="6.856060">
						<ele>964</ele>
						<time>2019-07-31T08:36:50Z</time>
					</trkpt>
					<trkpt lat="47.909070" lon="6.855900">
						<ele>963</ele>
						<time>2019-07-31T08:36:55Z</time>
					</trkpt>
					<trkpt lat="47.908850" lon="6.855770">
						<ele>963</ele>
						<time>2019-07-31T08:37:00Z</time>
					</trkpt>
					<trkpt lat="47.908680" lon="6.855640">
						<ele>962</ele>
						<time>2019-07-31T08:37:05Z</time>
					</trkpt>
					<trkpt lat="47.908500" lon="6.855550">
						<ele>962</ele>
						<time>2019-07-31T08:37:09Z</time>
					</trkpt>
					<trkpt lat="47.908320" lon="6.855500">
						<ele>963</ele>
						<time>2019-07-31T08:37:13Z</time>
					</trkpt>
					<trkpt lat="47.908120" lon="6.855500">
						<ele>962</ele>
						<time>2019-07-31T08:37:18Z</time>
					</trkpt>
					<trkpt lat="47.907940" lon="6.855530">
						<ele>962</ele>
						<time>2019-07-31T08:37:22Z</time>
					</trkpt>
					<trkpt lat="47.907670" lon="6.855570">
						<ele>962</ele>
						<time>2019-07-31T08:37:29Z</time>
					</trkpt>
					<trkpt lat="47.907470" lon="6.855630">
						<ele>963</ele>
						<time>2019-07-31T08:37:33Z</time>
					</trkpt>
					<trkpt lat="47.907290" lon="6.855640">
						<ele>963</ele>
						<time>2019-07-31T08:37:38Z</time>
					</trkpt>
					<trkpt lat="47.907080" lon="6.855620">
						<ele>962</ele>
						<time>2019-07-31T08:37:43Z</time>
					</trkpt>
					<trkpt lat="47.906860" lon="6.855560">
						<ele>961</ele>
						<time>2019-07-31T08:37:48Z</time>
					</trkpt>
					<trkpt lat="47.906690" lon="6.855480">
						<ele>961</ele>
						<time>2019-07-31T08:37:52Z</time>
					</trkpt>
					<trkpt lat="47.906550" lon="6.855370">
						<ele>959</ele>
						<time>2019-07-31T08:37:56Z</time>
					</trkpt>
					<trkpt lat="47.906450" lon="6.855200">
						<ele>957</ele>
						<time>2019-07-31T08:37:59Z</time>
					</trkpt>
					<trkpt lat="47.906380" lon="6.855020">
						<ele>955</ele>
						<time>2019-07-31T08:38:02Z</time>
					</trkpt>
					<trkpt lat="47.906340" lon="6.854840">
						<ele>955</ele>
						<time>2019-07-31T08:38:05Z</time>
					</trkpt>
					<trkpt lat="47.906300" lon="6.854610">
						<ele>955</ele>
						<time>2019-07-31T08:38:09Z</time>
					</trkpt>
					<trkpt lat="47.906260" lon="6.854430">
						<ele>954</ele>
						<time>2019-07-31T08:38:12Z</time>
					</trkpt>
					<trkpt lat="47.906170" lon="6.854330">
						<ele>955</ele>
						<time>2019-07-31T08:38:15Z</time>
					</trkpt>
					<trkpt lat="47.906070" lon="6.854300">
						<ele>955</ele>
						<time>2019-07-31T08:38:17Z</time>
					</trkpt>
					<trkpt lat="47.905910" lon="6.854320">
						<ele>955</ele>
						<time>2019-07-31T08:38:21Z</time>
					</trkpt>
					<trkpt lat="47.905760" lon="6.854400">
						<ele>955</ele>
						<time>2019-07-31T08:38:25Z</time>
					</trkpt>
					<trkpt lat="47.905700" lon="6.854510">
						<ele>955</ele>
						<time>2019-07-31T08:38:27Z</time>
					</trkpt>
					<trkpt lat="47.905650" lon="6.854630">
						<ele>953</ele>
						<time>2019-07-31T08:38:29Z</time>
					</trkpt>
					<trkpt lat="47.905600" lon="6.854810">
						<ele>951</ele>
						<time>2019-07-31T08:38:32Z</time>
					</trkpt>
					<trkpt lat="47.905550" lon="6.855050">
						<ele>949</ele>
						<time>2019-07-31T08:38:36Z</time>
					</trkpt>
					<trkpt lat="47.905530" lon="6.855260">
						<ele>949</ele>
						<time>2019-07-31T08:38:39Z</time>
					</trkpt>
					<trkpt lat="47.905510" lon="6.855410">
						<ele>948</ele>
						<time>2019-07-31T08:38:42Z</time>
					</trkpt>
					<trkpt lat="47.905480" lon="6.855730">
						<ele>947</ele>
						<time>2019-07-31T08:38:47Z</time>
					</trkpt>
					<trkpt lat="47.905440" lon="6.856030">
						<ele>946</ele>
						<time>2019-07-31T08:38:52Z</time>
					</trkpt>
					<trkpt lat="47.905400" lon="6.856230">
						<ele>946</ele>
						<time>2019-07-31T08:38:55Z</time>
					</trkpt>
					<trkpt lat="47.905340" lon="6.856560">
						<ele>945</ele>
						<time>2019-07-31T08:39:00Z</time>
					</trkpt>
					<trkpt lat="47.905260" lon="6.856870">
						<ele>943</ele>
						<time>2019-07-31T08:39:05Z</time>
					</trkpt>
					<trkpt lat="47.905200" lon="6.857110">
						<ele>942</ele>
						<time>2019-07-31T08:39:09Z</time>
					</trkpt>
					<trkpt lat="47.905130" lon="6.857370">
						<ele>940</ele>
						<time>2019-07-31T08:39:14Z</time>
					</trkpt>
					<trkpt lat="47.905060" lon="6.857680">
						<ele>937</ele>
						<time>2019-07-31T08:39:19Z</time>
					</trkpt>
					<trkpt lat="47.905010" lon="6.857940">
						<ele>934</ele>
						<time>2019-07-31T08:39:23Z</time>
					</trkpt>
					<trkpt lat="47.904980" lon="6.858120">
						<ele>933</ele>
						<time>2019-07-31T08:39:26Z</time>
					</trkpt>
					<trkpt lat="47.904940" lon="6.858230">
						<ele>931</ele>
						<time>2019-07-31T08:39:28Z</time>
					</trkpt>
					<trkpt lat="47.904890" lon="6.858440">
						<ele>929</ele>
						<time>2019-07-31T08:39:32Z</time>
					</trkpt>
					<trkpt lat="47.904800" lon="6.858650">
						<ele>927</ele>
						<time>2019-07-31T08:39:35Z</time>
					</trkpt>
					<trkpt lat="47.904770" lon="6.858850">
						<ele>927</ele>
						<time>2019-07-31T08:39:39Z</time>
					</trkpt>
					<trkpt lat="47.904730" lon="6.859000">
						<ele>927</ele>
						<time>2019-07-31T08:39:41Z</time>
					</trkpt>
					<trkpt lat="47.904680" lon="6.859190">
						<ele>926</ele>
						<time>2019-07-31T08:39:44Z</time>
					</trkpt>
					<trkpt lat="47.904580" lon="6.859430">
						<ele>923</ele>
						<time>2019-07-31T08:39:49Z</time>
					</trkpt>
					<trkpt lat="47.904480" lon="6.859670">
						<ele>920</ele>
						<time>2019-07-31T08:39:53Z</time>
					</trkpt>
					<trkpt lat="47.904370" lon="6.859910">
						<ele>916</ele>
						<time>2019-07-31T08:39:58Z</time>
					</trkpt>
					<trkpt lat="47.904260" lon="6.860120">
						<ele>912</ele>
						<time>2019-07-31T08:40:02Z</time>
					</trkpt>
					<trkpt lat="47.904230" lon="6.860240">
						<ele>911</ele>
						<time>2019-07-31T08:40:04Z</time>
					</trkpt>
					<trkpt lat="47.904210" lon="6.860410">
						<ele>911</ele>
						<time>2019-07-31T08:40:07Z</time>
					</trkpt>
					<trkpt lat="47.904190" lon="6.860590">
						<ele>911</ele>
						<time>2019-07-31T08:40:09Z</time>
					</trkpt>
					<trkpt lat="47.904130" lon="6.860770">
						<ele>910</ele>
						<time>2019-07-31T08:40:13Z</time>
					</trkpt>
					<trkpt lat="47.904070" lon="6.860930">
						<ele>909</ele>
						<time>2019-07-31T08:40:15Z</time>
					</trkpt>
					<trkpt lat="47.904020" lon="6.861020">
						<ele>908</ele>
						<time>2019-07-31T08:40:17Z</time>
					</trkpt>
					<trkpt lat="47.903960" lon="6.861220">
						<ele>908</ele>
						<time>2019-07-31T08:40:21Z</time>
					</trkpt>
					<trkpt lat="47.903880" lon="6.861390">
						<ele>907</ele>
						<time>2019-07-31T08:40:24Z</time>
					</trkpt>
					<trkpt lat="47.903810" lon="6.861540">
						<ele>907</ele>
						<time>2019-07-31T08:40:27Z</time>
					</trkpt>
					<trkpt lat="47.903740" lon="6.861720">
						<ele>906</ele>
						<time>2019-07-31T08:40:30Z</time>
					</trkpt>
					<trkpt lat="47.903570" lon="6.861950">
						<ele>902</ele>
						<time>2019-07-31T08:40:35Z</time>
					</trkpt>
					<trkpt lat="47.903400" lon="6.862230">
						<ele>898</ele>
						<time>2019-07-31T08:40:41Z</time>
					</trkpt>
					<trkpt lat="47.903320" lon="6.862320">
						<ele>896</ele>
						<time>2019-07-31T08:40:44Z</time>
					</trkpt>
					<trkpt lat="47.903240" lon="6.862450">
						<ele>894</ele>
						<time>2019-07-31T08:40:47Z</time>
					</trkpt>
					<trkpt lat="47.903130" lon="6.862590">
						<ele>891</ele>
						<time>2019-07-31T08:40:50Z</time>
					</trkpt>
					<trkpt lat="47.903010" lon="6.862800">
						<ele>889</ele>
						<time>2019-07-31T08:40:54Z</time>
					</trkpt>
					<trkpt lat="47.902920" lon="6.862960">
						<ele>887</ele>
						<time>2019-07-31T08:40:57Z</time>
					</trkpt>
					<trkpt lat="47.902830" lon="6.863170">
						<ele>886</ele>
						<time>2019-07-31T08:41:01Z</time>
					</trkpt>
					<trkpt lat="47.902750" lon="6.863310">
						<ele>885</ele>
						<time>2019-07-31T08:41:04Z</time>
					</trkpt>
					<trkpt lat="47.902660" lon="6.863510">
						<ele>883</ele>
						<time>2019-07-31T08:41:08Z</time>
					</trkpt>
					<trkpt lat="47.902560" lon="6.863690">
						<ele>881</ele>
						<time>2019-07-31T08:41:12Z</time>
					</trkpt>
					<trkpt lat="47.902490" lon="6.863840">
						<ele>880</ele>
						<time>2019-07-31T08:41:15Z</time>
					</trkpt>
					<trkpt lat="47.902450" lon="6.864000">
						<ele>880</ele>
						<time>2019-07-31T08:41:17Z</time>
					</trkpt>
					<trkpt lat="47.902390" lon="6.864500">
						<ele>875</ele>
						<time>2019-07-31T08:41:25Z</time>
					</trkpt>
					</trkseg>
				</trk>
			</gpx>
